sensor_id;sensor_type;location;lat;lon;timestamp;pressure;altitude;pressure_sealevel;temperature;humidity
79309;BME280;68767;53.078;7.386;2023-04-25T00:02:14;100943.84;;;6.04;88.73
79309;BME280;68767;53.078;7.386;2023-04-25T00:04:41;100947.09;;;6.01;87.61
79309;BME280;68767;53.078;7.386;2023-04-25T00:07:09;100946.88;;;5.97;87.75
79309;BME280;68767;53.078;7.386;2023-04-25T00:09:37;100949.59;;;5.92;89.42
79309;BME280;68767;53.078;7.386;2023-04-25T00:12:04;100946.13;;;5.91;89.83
79309;BME280;68767;53.078;7.386;2023-04-25T00:14:31;100943.75;;;5.85;88.70
79309;BME280;68767;53.078;7.386;2023-04-25T00:17:01;100948.59;;;5.83;90.85
79309;BME280;68767;53.078;7.386;2023-04-25T00:19:29;100950.16;;;5.84;88.17
79309;BME280;68767;53.078;7.386;2023-04-25T00:21:56;100960.88;;;5.79;89.44
79309;BME280;68767;53.078;7.386;2023-04-25T00:24:23;100959.06;;;5.74;88.78
79309;BME280;68767;53.078;7.386;2023-04-25T00:26:50;100967.28;;;5.78;90.76
79309;BME280;68767;53.078;7.386;2023-04-25T00:29:17;100959.69;;;5.66;90.57
79309;BME280;68767;53.078;7.386;2023-04-25T00:31:43;100962.25;;;5.76;88.81
79309;BME280;68767;53.078;7.386;2023-04-25T00:34:10;100969.22;;;5.72;90.22
79309;BME280;68767;53.078;7.386;2023-04-25T00:36:37;100975.84;;;5.75;88.85
79309;BME280;68767;53.078;7.386;2023-04-25T00:39:04;100978.56;;;5.70;90.77
79309;BME280;68767;53.078;7.386;2023-04-25T00:41:32;100976.94;;;5.74;89.93
79309;BME280;68767;53.078;7.386;2023-04-25T00:44:00;100974.50;;;5.77;88.87
79309;BME280;68767;53.078;7.386;2023-04-25T00:46:27;100971.59;;;5.74;90.13
79309;BME280;68767;53.078;7.386;2023-04-25T00:48:54;100969.72;;;5.74;89.75
79309;BME280;68767;53.078;7.386;2023-04-25T00:51:21;100966.31;;;5.69;87.44
79309;BME280;68767;53.078;7.386;2023-04-25T00:53:49;100970.06;;;5.68;87.06
79309;BME280;68767;53.078;7.386;2023-04-25T00:56:18;100968.56;;;5.56;87.19
79309;BME280;68767;53.078;7.386;2023-04-25T00:58:45;100973.56;;;5.63;87.10
79309;BME280;68767;53.078;7.386;2023-04-25T01:01:12;100978.19;;;5.52;87.23
79309;BME280;68767;53.078;7.386;2023-04-25T01:03:39;100977.63;;;5.55;86.59
79309;BME280;68767;53.078;7.386;2023-04-25T01:06:10;100982.44;;;5.53;84.93
79309;BME280;68767;53.078;7.386;2023-04-25T01:08:38;100974.78;;;5.47;86.81
79309;BME280;68767;53.078;7.386;2023-04-25T01:11:06;100973.44;;;5.44;88.01
79309;BME280;68767;53.078;7.386;2023-04-25T01:13:34;100987.31;;;5.46;85.94
79309;BME280;68767;53.078;7.386;2023-04-25T01:16:02;100994.72;;;5.49;87.83
79309;BME280;68767;53.078;7.386;2023-04-25T01:18:29;100983.31;;;5.44;85.25
79309;BME280;68767;53.078;7.386;2023-04-25T01:21:02;100978.34;;;5.32;85.60
79309;BME280;68767;53.078;7.386;2023-04-25T01:23:32;100982.69;;;5.23;86.91
79309;BME280;68767;53.078;7.386;2023-04-25T01:26:00;100985.88;;;5.20;89.57
79309;BME280;68767;53.078;7.386;2023-04-25T01:28:28;100989.91;;;5.12;89.46
79309;BME280;68767;53.078;7.386;2023-04-25T01:30:56;100983.00;;;5.11;89.32
79309;BME280;68767;53.078;7.386;2023-04-25T01:33:24;100990.47;;;5.14;88.12
79309;BME280;68767;53.078;7.386;2023-04-25T01:35:51;100991.75;;;5.22;88.21
79309;BME280;68767;53.078;7.386;2023-04-25T01:38:19;100990.13;;;5.21;88.75
79309;BME280;68767;53.078;7.386;2023-04-25T01:40:46;100989.66;;;5.14;89.19
79309;BME280;68767;53.078;7.386;2023-04-25T01:43:14;101000.56;;;5.17;89.01
79309;BME280;68767;53.078;7.386;2023-04-25T01:45:42;100993.34;;;5.18;87.96
79309;BME280;68767;53.078;7.386;2023-04-25T01:48:12;101002.94;;;5.19;88.64
79309;BME280;68767;53.078;7.386;2023-04-25T01:50:40;101006.94;;;5.16;88.71
79309;BME280;68767;53.078;7.386;2023-04-25T01:53:09;101007.44;;;5.23;90.14
79309;BME280;68767;53.078;7.386;2023-04-25T01:55:37;101008.22;;;5.24;88.02
79309;BME280;68767;53.078;7.386;2023-04-25T01:58:08;101009.84;;;5.20;87.83
79309;BME280;68767;53.078;7.386;2023-04-25T02:00:54;101007.75;;;5.17;88.51
79309;BME280;68767;53.078;7.386;2023-04-25T02:03:24;101006.16;;;5.16;88.09
79309;BME280;68767;53.078;7.386;2023-04-25T02:05:51;101014.38;;;5.19;88.48
79309;BME280;68767;53.078;7.386;2023-04-25T02:08:19;101012.28;;;5.16;85.87
79309;BME280;68767;53.078;7.386;2023-04-25T02:10:46;101013.34;;;5.15;87.18
79309;BME280;68767;53.078;7.386;2023-04-25T02:13:16;101010.97;;;5.14;87.53
79309;BME280;68767;53.078;7.386;2023-04-25T02:15:56;101013.88;;;5.17;87.55
79309;BME280;68767;53.078;7.386;2023-04-25T02:18:23;101018.13;;;5.18;87.38
79309;BME280;68767;53.078;7.386;2023-04-25T02:20:51;101019.97;;;5.18;86.57
79309;BME280;68767;53.078;7.386;2023-04-25T02:23:19;101019.00;;;5.03;88.36
79309;BME280;68767;53.078;7.386;2023-04-25T02:25:46;101007.56;;;5.03;88.90
79309;BME280;68767;53.078;7.386;2023-04-25T02:28:13;101016.09;;;5.05;87.44
79309;BME280;68767;53.078;7.386;2023-04-25T02:30:40;101009.94;;;5.04;87.52
79309;BME280;68767;53.078;7.386;2023-04-25T02:33:07;101014.22;;;5.00;86.74
79309;BME280;68767;53.078;7.386;2023-04-25T02:35:35;101014.78;;;4.97;87.89
79309;BME280;68767;53.078;7.386;2023-04-25T02:38:02;101014.81;;;4.92;86.99
79309;BME280;68767;53.078;7.386;2023-04-25T02:40:29;101016.16;;;4.85;86.57
79309;BME280;68767;53.078;7.386;2023-04-25T02:42:56;101017.75;;;4.86;86.76
79309;BME280;68767;53.078;7.386;2023-04-25T02:45:25;101024.16;;;4.79;85.92
79309;BME280;68767;53.078;7.386;2023-04-25T02:47:52;101024.22;;;4.69;86.55
79309;BME280;68767;53.078;7.386;2023-04-25T02:50:19;101023.47;;;4.59;86.35
79309;BME280;68767;53.078;7.386;2023-04-25T02:52:46;101025.06;;;4.55;86.17
79309;BME280;68767;53.078;7.386;2023-04-25T02:55:17;101026.13;;;4.59;86.80
79309;BME280;68767;53.078;7.386;2023-04-25T02:57:45;101028.00;;;4.53;87.27
79309;BME280;68767;53.078;7.386;2023-04-25T03:00:19;101030.09;;;4.61;87.32
79309;BME280;68767;53.078;7.386;2023-04-25T03:02:46;101028.78;;;4.64;85.89
79309;BME280;68767;53.078;7.386;2023-04-25T03:05:14;101041.25;;;4.68;84.17
79309;BME280;68767;53.078;7.386;2023-04-25T03:07:41;101040.19;;;4.69;85.79
79309;BME280;68767;53.078;7.386;2023-04-25T03:10:10;101036.47;;;4.70;83.80
79309;BME280;68767;53.078;7.386;2023-04-25T03:12:37;101038.88;;;4.72;84.40
79309;BME280;68767;53.078;7.386;2023-04-25T03:15:04;101043.41;;;4.61;83.53
79309;BME280;68767;53.078;7.386;2023-04-25T03:17:32;101056.47;;;4.58;82.59
79309;BME280;68767;53.078;7.386;2023-04-25T03:19:59;101051.97;;;4.48;82.34
79309;BME280;68767;53.078;7.386;2023-04-25T03:22:27;101059.41;;;4.51;82.70
79309;BME280;68767;53.078;7.386;2023-04-25T03:24:55;101056.50;;;4.42;81.68
79309;BME280;68767;53.078;7.386;2023-04-25T03:27:22;101056.50;;;4.47;83.37
79309;BME280;68767;53.078;7.386;2023-04-25T03:29:50;101070.59;;;4.48;82.84
79309;BME280;68767;53.078;7.386;2023-04-25T03:32:17;101065.53;;;4.51;81.01
79309;BME280;68767;53.078;7.386;2023-04-25T03:34:45;101067.16;;;4.47;82.25
79309;BME280;68767;53.078;7.386;2023-04-25T03:37:12;101069.50;;;4.54;82.36
79309;BME280;68767;53.078;7.386;2023-04-25T03:39:39;101071.38;;;4.54;81.32
79309;BME280;68767;53.078;7.386;2023-04-25T03:42:06;101073.22;;;4.53;81.92
79309;BME280;68767;53.078;7.386;2023-04-25T03:44:33;101081.25;;;4.48;81.94
79309;BME280;68767;53.078;7.386;2023-04-25T03:47:00;101085.78;;;4.47;84.90
79309;BME280;68767;53.078;7.386;2023-04-25T03:49:28;101088.94;;;4.44;81.20
79309;BME280;68767;53.078;7.386;2023-04-25T03:51:59;101102.00;;;4.41;85.23
79309;BME280;68767;53.078;7.386;2023-04-25T03:54:31;101100.13;;;4.36;87.01
79309;BME280;68767;53.078;7.386;2023-04-25T03:57:05;101108.91;;;4.42;85.81
79309;BME280;68767;53.078;7.386;2023-04-25T03:59:35;101104.13;;;4.44;86.70
79309;BME280;68767;53.078;7.386;2023-04-25T04:02:02;101105.97;;;4.48;83.87
79309;BME280;68767;53.078;7.386;2023-04-25T04:04:31;101114.25;;;4.47;86.49
79309;BME280;68767;53.078;7.386;2023-04-25T04:06:59;101107.28;;;4.46;87.73
79309;BME280;68767;53.078;7.386;2023-04-25T04:09:30;101113.44;;;4.36;86.94
79309;BME280;68767;53.078;7.386;2023-04-25T04:11:59;101120.66;;;4.31;86.62
79309;BME280;68767;53.078;7.386;2023-04-25T04:14:29;101111.84;;;4.20;86.72
79309;BME280;68767;53.078;7.386;2023-04-25T04:16:56;101113.75;;;4.14;86.73
79309;BME280;68767;53.078;7.386;2023-04-25T04:19:24;101113.22;;;4.07;90.19
79309;BME280;68767;53.078;7.386;2023-04-25T04:22:16;101112.13;;;4.08;89.30
79309;BME280;68767;53.078;7.386;2023-04-25T04:24:45;101110.81;;;4.11;88.00
79309;BME280;68767;53.078;7.386;2023-04-25T04:27:21;101112.13;;;4.08;88.62
79309;BME280;68767;53.078;7.386;2023-04-25T04:29:53;101118.50;;;4.02;87.21
79309;BME280;68767;53.078;7.386;2023-04-25T04:32:28;101112.38;;;3.97;88.37
79309;BME280;68767;53.078;7.386;2023-04-25T04:34:57;101124.88;;;3.86;88.17
79309;BME280;68767;53.078;7.386;2023-04-25T04:37:25;101129.16;;;3.82;88.98
79309;BME280;68767;53.078;7.386;2023-04-25T04:39:51;101121.44;;;3.75;89.46
79309;BME280;68767;53.078;7.386;2023-04-25T04:42:25;101120.34;;;3.61;89.17
79309;BME280;68767;53.078;7.386;2023-04-25T04:45:05;101129.38;;;3.65;88.46
79309;BME280;68767;53.078;7.386;2023-04-25T04:48:06;101141.88;;;3.75;86.82
79309;BME280;68767;53.078;7.386;2023-04-25T04:50:54;101147.19;;;3.80;87.67
79309;BME280;68767;53.078;7.386;2023-04-25T04:53:50;101140.56;;;3.92;87.56
79309;BME280;68767;53.078;7.386;2023-04-25T04:56:17;101142.16;;;4.04;87.06
79309;BME280;68767;53.078;7.386;2023-04-25T04:58:52;101148.03;;;4.06;86.93
79309;BME280;68767;53.078;7.386;2023-04-25T05:01:39;101149.34;;;4.13;86.19
79309;BME280;68767;53.078;7.386;2023-04-25T05:04:24;101153.88;;;4.18;87.50
79309;BME280;68767;53.078;7.386;2023-04-25T05:07:03;101151.47;;;4.21;86.17
79309;BME280;68767;53.078;7.386;2023-04-25T05:09:30;101158.94;;;4.25;85.79
79309;BME280;68767;53.078;7.386;2023-04-25T05:12:18;101166.91;;;4.30;86.14
79309;BME280;68767;53.078;7.386;2023-04-25T05:14:58;101167.44;;;4.37;86.02
79309;BME280;68767;53.078;7.386;2023-04-25T05:17:40;101176.19;;;4.37;84.95
79309;BME280;68767;53.078;7.386;2023-04-25T05:20:28;101179.41;;;4.39;84.86
79309;BME280;68767;53.078;7.386;2023-04-25T05:23:00;101182.84;;;4.45;85.31
79309;BME280;68767;53.078;7.386;2023-04-25T05:25:51;101182.56;;;4.46;82.94
79309;BME280;68767;53.078;7.386;2023-04-25T05:28:38;101176.19;;;4.37;85.31
79309;BME280;68767;53.078;7.386;2023-04-25T05:31:17;101176.47;;;4.41;84.25
79309;BME280;68767;53.078;7.386;2023-04-25T05:33:55;101173.28;;;4.44;83.85
79309;BME280;68767;53.078;7.386;2023-04-25T05:36:27;101181.50;;;4.53;82.78
79309;BME280;68767;53.078;7.386;2023-04-25T05:38:54;101178.59;;;4.59;81.29
79309;BME280;68767;53.078;7.386;2023-04-25T05:41:44;101186.56;;;4.64;81.15
79309;BME280;68767;53.078;7.386;2023-04-25T05:44:25;101179.66;;;4.53;80.35
79309;BME280;68767;53.078;7.386;2023-04-25T05:47:10;101186.28;;;4.61;82.21
79309;BME280;68767;53.078;7.386;2023-04-25T05:49:57;101180.47;;;4.48;82.91
79309;BME280;68767;53.078;7.386;2023-04-25T05:52:50;101197.22;;;4.44;84.59
79309;BME280;68767;53.078;7.386;2023-04-25T05:55:24;101192.16;;;4.37;83.43
79309;BME280;68767;53.078;7.386;2023-04-25T05:57:51;101202.53;;;4.54;83.32
79309;BME280;68767;53.078;7.386;2023-04-25T06:00:19;101197.19;;;4.69;81.14
79309;BME280;68767;53.078;7.386;2023-04-25T06:02:48;101196.63;;;4.93;79.58
79309;BME280;68767;53.078;7.386;2023-04-25T06:05:15;101203.50;;;5.09;77.76
79309;BME280;68767;53.078;7.386;2023-04-25T06:07:45;101205.28;;;5.34;76.31
79309;BME280;68767;53.078;7.386;2023-04-25T06:10:13;101198.84;;;5.45;75.92
79309;BME280;68767;53.078;7.386;2023-04-25T06:12:41;101212.44;;;5.44;73.78
79309;BME280;68767;53.078;7.386;2023-04-25T06:15:08;101203.94;;;5.42;77.41
79309;BME280;68767;53.078;7.386;2023-04-25T06:17:53;101207.94;;;5.39;77.76
79309;BME280;68767;53.078;7.386;2023-04-25T06:20:21;101210.38;;;5.25;75.65
79309;BME280;68767;53.078;7.386;2023-04-25T06:22:52;101218.69;;;5.08;78.02
79309;BME280;68767;53.078;7.386;2023-04-25T06:25:24;101218.97;;;5.07;79.05
79309;BME280;68767;53.078;7.386;2023-04-25T06:27:52;101224.84;;;4.99;78.61
79309;BME280;68767;53.078;7.386;2023-04-25T06:30:20;101232.31;;;4.87;79.35
79309;BME280;68767;53.078;7.386;2023-04-25T06:32:52;101224.34;;;4.82;80.75
79309;BME280;68767;53.078;7.386;2023-04-25T06:35:20;101225.41;;;4.81;77.89
79309;BME280;68767;53.078;7.386;2023-04-25T06:37:47;101233.63;;;4.99;78.42
79309;BME280;68767;53.078;7.386;2023-04-25T06:40:20;101225.88;;;5.13;77.08
79309;BME280;68767;53.078;7.386;2023-04-25T06:42:47;101226.31;;;5.35;78.85
79309;BME280;68767;53.078;7.386;2023-04-25T06:45:33;101224.69;;;5.50;76.68
79309;BME280;68767;53.078;7.386;2023-04-25T06:48:00;101234.56;;;5.44;75.94
79309;BME280;68767;53.078;7.386;2023-04-25T06:50:27;101238.56;;;5.36;77.65
79309;BME280;68767;53.078;7.386;2023-04-25T06:52:54;101248.47;;;5.31;77.92
79309;BME280;68767;53.078;7.386;2023-04-25T06:55:22;101245.00;;;5.30;76.34
79309;BME280;68767;53.078;7.386;2023-04-25T06:58:15;101239.91;;;5.39;77.28
79309;BME280;68767;53.078;7.386;2023-04-25T07:00:59;101243.47;;;5.79;76.32
79309;BME280;68767;53.078;7.386;2023-04-25T07:03:27;101238.84;;;6.05;74.48
79309;BME280;68767;53.078;7.386;2023-04-25T07:05:58;101247.00;;;6.18;75.02
79309;BME280;68767;53.078;7.386;2023-04-25T07:08:25;101244.78;;;6.31;73.76
79309;BME280;68767;53.078;7.386;2023-04-25T07:10:52;101245.59;;;6.31;74.04
79309;BME280;68767;53.078;7.386;2023-04-25T07:13:19;101250.72;;;6.23;73.81
79309;BME280;68767;53.078;7.386;2023-04-25T07:15:46;101248.47;;;5.96;74.78
79309;BME280;68767;53.078;7.386;2023-04-25T07:18:16;101256.22;;;5.92;76.20
79309;BME280;68767;53.078;7.386;2023-04-25T07:20:43;101258.09;;;5.97;74.23
79309;BME280;68767;53.078;7.386;2023-04-25T07:23:11;101260.41;;;6.03;74.18
79309;BME280;68767;53.078;7.386;2023-04-25T07:25:38;101254.50;;;6.11;73.56
79309;BME280;68767;53.078;7.386;2023-04-25T07:28:06;101254.19;;;6.23;74.63
79309;BME280;68767;53.078;7.386;2023-04-25T07:30:33;101253.59;;;6.31;73.61
79309;BME280;68767;53.078;7.386;2023-04-25T07:33:03;101262.00;;;6.48;74.75
79309;BME280;68767;53.078;7.386;2023-04-25T07:35:30;101254.75;;;6.54;74.32
79309;BME280;68767;53.078;7.386;2023-04-25T07:37:58;101258.03;;;6.75;73.57
79309;BME280;68767;53.078;7.386;2023-04-25T07:40:25;101262.41;;;6.95;72.68
79309;BME280;68767;53.078;7.386;2023-04-25T07:42:58;101263.53;;;7.42;69.34
79309;BME280;68767;53.078;7.386;2023-04-25T07:45:46;101259.75;;;7.67;69.51
79309;BME280;68767;53.078;7.386;2023-04-25T07:48:18;101260.84;;;7.66;69.12
79309;BME280;68767;53.078;7.386;2023-04-25T07:50:46;101262.84;;;7.55;69.40
79309;BME280;68767;53.078;7.386;2023-04-25T07:53:14;101280.47;;;7.32;69.33
79309;BME280;68767;53.078;7.386;2023-04-25T07:55:52;101303.59;;;6.89;69.32
79309;BME280;68767;53.078;7.386;2023-04-25T07:58:20;101297.66;;;6.24;76.69
79309;BME280;68767;53.078;7.386;2023-04-25T08:00:56;101307.91;;;6.06;79.23
79309;BME280;68767;53.078;7.386;2023-04-25T08:03:41;101323.69;;;5.98;80.68
79309;BME280;68767;53.078;7.386;2023-04-25T08:06:17;101314.63;;;5.94;78.95
79309;BME280;68767;53.078;7.386;2023-04-25T08:09:02;101311.06;;;6.13;78.95
79309;BME280;68767;53.078;7.386;2023-04-25T08:11:37;101316.41;;;6.53;78.46
79309;BME280;68767;53.078;7.386;2023-04-25T08:14:06;101317.34;;;6.72;76.15
79309;BME280;68767;53.078;7.386;2023-04-25T08:16:33;101317.94;;;7.27;72.47
79309;BME280;68767;53.078;7.386;2023-04-25T08:19:02;101317.44;;;7.49;69.85
79309;BME280;68767;53.078;7.386;2023-04-25T08:21:30;101312.94;;;7.44;67.37
79309;BME280;68767;53.078;7.386;2023-04-25T08:24:01;101336.38;;;7.52;68.90
79309;BME280;68767;53.078;7.386;2023-04-25T08:26:32;101335.66;;;7.47;64.83
79309;BME280;68767;53.078;7.386;2023-04-25T08:29:01;101332.06;;;7.56;68.47
79309;BME280;68767;53.078;7.386;2023-04-25T08:31:28;101346.22;;;7.57;67.37
79309;BME280;68767;53.078;7.386;2023-04-25T08:33:58;101344.31;;;7.63;66.09
79309;BME280;68767;53.078;7.386;2023-04-25T08:36:41;101350.31;;;7.49;67.23
79309;BME280;68767;53.078;7.386;2023-04-25T08:39:22;101339.50;;;7.59;64.16
79309;BME280;68767;53.078;7.386;2023-04-25T08:42:12;101341.38;;;7.83;66.82
79309;BME280;68767;53.078;7.386;2023-04-25T08:44:39;101341.88;;;8.09;63.29
79309;BME280;68767;53.078;7.386;2023-04-25T08:47:06;101340.22;;;8.37;62.47
79309;BME280;68767;53.078;7.386;2023-04-25T08:49:54;101340.41;;;8.78;62.29
79309;BME280;68767;53.078;7.386;2023-04-25T08:52:23;101343.47;;;8.85;63.84
79309;BME280;68767;53.078;7.386;2023-04-25T08:54:53;101342.59;;;8.90;60.73
79309;BME280;68767;53.078;7.386;2023-04-25T08:57:24;101346.88;;;9.23;61.93
79309;BME280;68767;53.078;7.386;2023-04-25T08:59:52;101357.94;;;9.03;62.46
79309;BME280;68767;53.078;7.386;2023-04-25T09:02:21;101366.66;;;8.76;60.92
79309;BME280;68767;53.078;7.386;2023-04-25T09:04:50;101373.31;;;8.60;63.43
79309;BME280;68767;53.078;7.386;2023-04-25T09:07:17;101371.16;;;8.81;62.06
79309;BME280;68767;53.078;7.386;2023-04-25T09:09:49;101371.50;;;9.25;61.47
79309;BME280;68767;53.078;7.386;2023-04-25T09:12:19;101382.75;;;9.27;58.90
79309;BME280;68767;53.078;7.386;2023-04-25T09:15:11;101377.53;;;9.17;60.85
79309;BME280;68767;53.078;7.386;2023-04-25T09:17:57;101389.28;;;9.21;61.67
79309;BME280;68767;53.078;7.386;2023-04-25T09:20:30;101392.06;;;8.60;62.03
79309;BME280;68767;53.078;7.386;2023-04-25T09:23:02;101395.91;;;8.35;65.05
79309;BME280;68767;53.078;7.386;2023-04-25T09:25:35;101408.28;;;8.26;64.06
79309;BME280;68767;53.078;7.386;2023-04-25T09:28:07;101420.09;;;8.25;64.63
79309;BME280;68767;53.078;7.386;2023-04-25T09:30:35;101416.41;;;7.97;66.57
79309;BME280;68767;53.078;7.386;2023-04-25T09:33:31;101418.16;;;8.30;68.32
79309;BME280;68767;53.078;7.386;2023-04-25T09:36:08;101427.63;;;8.47;67.71
79309;BME280;68767;53.078;7.386;2023-04-25T09:38:59;101421.84;;;8.58;63.40
79309;BME280;68767;53.078;7.386;2023-04-25T09:41:37;101423.94;;;8.80;63.90
79309;BME280;68767;53.078;7.386;2023-04-25T09:44:05;101416.03;;;9.08;62.62
79309;BME280;68767;53.078;7.386;2023-04-25T09:46:35;101424.19;;;9.49;61.74
79309;BME280;68767;53.078;7.386;2023-04-25T09:49:14;101413.38;;;9.54;61.71
79309;BME280;68767;53.078;7.386;2023-04-25T09:51:58;101419.53;;;9.54;59.71
79309;BME280;68767;53.078;7.386;2023-04-25T09:54:34;101432.78;;;9.78;59.32
79309;BME280;68767;53.078;7.386;2023-04-25T09:59:47;101432.84;;;9.60;59.28
79309;BME280;68767;53.078;7.386;2023-04-25T10:02:16;101433.97;;;9.72;60.18
79309;BME280;68767;53.078;7.386;2023-04-25T10:04:47;101434.91;;;9.95;55.63
79309;BME280;68767;53.078;7.386;2023-04-25T10:07:22;101431.31;;;9.86;57.55
79309;BME280;68767;53.078;7.386;2023-04-25T10:09:58;101426.53;;;9.97;57.19
79309;BME280;68767;53.078;7.386;2023-04-25T10:12:26;101432.88;;;9.73;60.10
79309;BME280;68767;53.078;7.386;2023-04-25T10:14:54;101435.38;;;9.83;57.96
79309;BME280;68767;53.078;7.386;2023-04-25T10:17:21;101444.28;;;9.65;60.35
79309;BME280;68767;53.078;7.386;2023-04-25T10:19:48;101454.47;;;9.36;60.33
79309;BME280;68767;53.078;7.386;2023-04-25T10:23:06;101460.78;;;9.07;63.56
79309;BME280;68767;53.078;7.386;2023-04-25T10:25:06;101457.47;;;8.35;65.66
79309;BME280;68767;53.078;7.386;2023-04-25T10:27:35;101456.63;;;8.39;64.04
79309;BME280;68767;53.078;7.386;2023-04-25T10:32:31;101472.03;;;8.00;70.46
79309;BME280;68767;53.078;7.386;2023-04-25T10:35:18;101478.63;;;7.54;65.83
79309;BME280;68767;53.078;7.386;2023-04-25T10:38:10;101482.50;;;7.67;69.36
79309;BME280;68767;53.078;7.386;2023-04-25T10:40:37;101483.34;;;7.63;71.86
79309;BME280;68767;53.078;7.386;2023-04-25T10:43:36;101476.97;;;7.87;68.09
79309;BME280;68767;53.078;7.386;2023-04-25T10:48:48;101475.38;;;8.39;63.56
79309;BME280;68767;53.078;7.386;2023-04-25T10:51:16;101469.44;;;8.42;61.22
79309;BME280;68767;53.078;7.386;2023-04-25T10:53:45;101475.25;;;8.68;64.26
79309;BME280;68767;53.078;7.386;2023-04-25T10:56:19;101471.81;;;9.06;59.41
79309;BME280;68767;53.078;7.386;2023-04-25T10:58:48;101473.81;;;9.65;62.40
79309;BME280;68767;53.078;7.386;2023-04-25T11:01:24;101460.25;;;10.17;58.22
79309;BME280;68767;53.078;7.386;2023-04-25T11:03:57;101464.31;;;10.69;54.94
79309;BME280;68767;53.078;7.386;2023-04-25T11:06:42;101463.13;;;10.97;54.29
79309;BME280;68767;53.078;7.386;2023-04-25T11:09:13;101465.06;;;10.83;53.29
79309;BME280;68767;53.078;7.386;2023-04-25T11:11:40;101464.19;;;11.10;54.33
79309;BME280;68767;53.078;7.386;2023-04-25T11:14:07;101472.84;;;11.07;54.97
79309;BME280;68767;53.078;7.386;2023-04-25T11:16:34;101487.09;;;10.85;57.82
79309;BME280;68767;53.078;7.386;2023-04-25T11:19:03;101503.81;;;10.13;60.76
79309;BME280;68767;53.078;7.386;2023-04-25T11:21:30;101506.44;;;9.02;66.45
79309;BME280;68767;53.078;7.386;2023-04-25T11:23:59;101529.50;;;8.36;73.66
79309;BME280;68767;53.078;7.386;2023-04-25T11:26:26;101507.16;;;7.25;71.77
79309;BME280;68767;53.078;7.386;2023-04-25T11:28:57;101506.25;;;7.40;72.80
79309;BME280;68767;53.078;7.386;2023-04-25T11:31:25;101502.41;;;7.56;71.24
79309;BME280;68767;53.078;7.386;2023-04-25T11:33:53;101505.69;;;7.77;74.45
79309;BME280;68767;53.078;7.386;2023-04-25T11:36:23;101503.59;;;8.03;74.64
79309;BME280;68767;53.078;7.386;2023-04-25T11:38:51;101500.47;;;8.20;70.26
79309;BME280;68767;53.078;7.386;2023-04-25T11:41:21;101498.97;;;8.32;67.13
79309;BME280;68767;53.078;7.386;2023-04-25T11:43:49;101508.75;;;8.47;66.78
79309;BME280;68767;53.078;7.386;2023-04-25T11:46:16;101500.38;;;8.54;67.61
79309;BME280;68767;53.078;7.386;2023-04-25T11:48:43;101502.53;;;8.52;66.66
79309;BME280;68767;53.078;7.386;2023-04-25T11:51:11;101500.13;;;8.93;64.42
79309;BME280;68767;53.078;7.386;2023-04-25T11:53:41;101487.16;;;9.19;61.88
79309;BME280;68767;53.078;7.386;2023-04-25T11:56:10;101484.84;;;9.64;61.98
79309;BME280;68767;53.078;7.386;2023-04-25T11:58:57;101492.94;;;9.77;61.67
79309;BME280;68767;53.078;7.386;2023-04-25T12:04:13;101516.88;;;9.22;59.93
79309;BME280;68767;53.078;7.386;2023-04-25T12:06:41;101529.03;;;8.53;63.70
79309;BME280;68767;53.078;7.386;2023-04-25T12:09:10;101534.78;;;8.12;68.60
79309;BME280;68767;53.078;7.386;2023-04-25T12:11:48;101529.38;;;8.17;69.58
79309;BME280;68767;53.078;7.386;2023-04-25T12:14:35;101535.75;;;8.93;70.32
79309;BME280;68767;53.078;7.386;2023-04-25T12:17:03;101519.66;;;9.82;64.93
79309;BME280;68767;53.078;7.386;2023-04-25T12:19:37;101528.00;;;9.81;63.16
79309;BME280;68767;53.078;7.386;2023-04-25T12:22:24;101537.88;;;9.85;63.72
79309;BME280;68767;53.078;7.386;2023-04-25T12:24:51;101534.28;;;9.57;62.95
79309;BME280;68767;53.078;7.386;2023-04-25T12:27:20;101543.78;;;9.69;60.89
79309;BME280;68767;53.078;7.386;2023-04-25T12:29:55;101533.00;;;9.88;57.95
79309;BME280;68767;53.078;7.386;2023-04-25T12:32:22;101541.78;;;9.74;58.87
79309;BME280;68767;53.078;7.386;2023-04-25T12:34:49;101542.25;;;9.63;59.96
79309;BME280;68767;53.078;7.386;2023-04-25T12:37:16;101537.69;;;9.96;60.52
79309;BME280;68767;53.078;7.386;2023-04-25T12:39:43;101532.47;;;9.72;59.30
79309;BME280;68767;53.078;7.386;2023-04-25T12:42:10;101541.69;;;9.47;61.01
79309;BME280;68767;53.078;7.386;2023-04-25T12:44:39;101544.31;;;9.84;59.94
79309;BME280;68767;53.078;7.386;2023-04-25T12:47:06;101545.25;;;10.07;61.01
79309;BME280;68767;53.078;7.386;2023-04-25T12:49:33;101568.22;;;10.00;62.32
79309;BME280;68767;53.078;7.386;2023-04-25T12:52:01;101553.50;;;9.65;60.78
79309;BME280;68767;53.078;7.386;2023-04-25T12:54:27;101572.00;;;9.28;61.79
79309;BME280;68767;53.078;7.386;2023-04-25T12:56:54;101580.91;;;9.05;64.71
79309;BME280;68767;53.078;7.386;2023-04-25T12:59:21;101567.28;;;9.39;65.69
79309;BME280;68767;53.078;7.386;2023-04-25T13:01:48;101576.63;;;9.42;61.21
79309;BME280;68767;53.078;7.386;2023-04-25T13:04:15;101573.56;;;10.32;59.45
79309;BME280;68767;53.078;7.386;2023-04-25T13:06:43;101565.72;;;12.48;54.61
79309;BME280;68767;53.078;7.386;2023-04-25T13:09:10;101570.97;;;13.88;49.05
79309;BME280;68767;53.078;7.386;2023-04-25T13:11:39;101571.16;;;13.22;47.10
79309;BME280;68767;53.078;7.386;2023-04-25T13:14:07;101564.50;;;13.19;49.12
79309;BME280;68767;53.078;7.386;2023-04-25T13:16:34;101573.03;;;13.13;49.65
79309;BME280;68767;53.078;7.386;2023-04-25T13:19:01;101577.09;;;12.76;49.45
79309;BME280;68767;53.078;7.386;2023-04-25T13:21:30;101585.03;;;11.43;52.12
79309;BME280;68767;53.078;7.386;2023-04-25T13:24:00;101585.31;;;10.50;56.10
79309;BME280;68767;53.078;7.386;2023-04-25T13:26:27;101582.41;;;9.87;57.89
79309;BME280;68767;53.078;7.386;2023-04-25T13:28:54;101577.16;;;9.44;59.54
79309;BME280;68767;53.078;7.386;2023-04-25T13:31:21;101577.34;;;9.66;60.16
79309;BME280;68767;53.078;7.386;2023-04-25T13:33:48;101579.47;;;9.69;59.53